sensor_id;sensor_type;location;lat;lon;timestamp;pressure;altitude;pressure_sealevel;temperature;humidity
46598;BME280;32318;48.858;8.252;2022-08-19T00:01:03;99862.06;;;21.74;68.08
46598;BME280;32318;48.858;8.252;2022-08-19T00:09:06;99875.06;;;21.72;69.13
46598;BME280;32318;48.858;8.252;2022-08-19T00:17:08;99864.63;;;21.64;69.90
46598;BME280;32318;48.858;8.252;2022-08-19T00:25:08;99863.44;;;21.60;69.29
46598;BME280;32318;48.858;8.252;2022-08-19T00:33:09;99877.53;;;21.57;70.21
46598;BME280;32318;48.858;8.252;2022-08-19T00:41:12;99866.88;;;21.55;69.83
46598;BME280;32318;48.858;8.252;2022-08-19T00:49:19;99859.31;;;21.57;70.63
46598;BME280;32318;48.858;8.252;2022-08-19T00:57:26;99841.97;;;21.58;70.88
46598;BME280;32318;48.858;8.252;2022-08-19T01:05:28;99867.25;;;21.59;70.59
46598;BME280;32318;48.858;8.252;2022-08-19T01:13:32;99866.06;;;21.55;70.73
46598;BME280;32318;48.858;8.252;2022-08-19T01:21:38;99853.56;;;21.54;71.52
46598;BME280;32318;48.858;8.252;2022-08-19T01:29:41;99861.69;;;21.54;70.86
46598;BME280;32318;48.858;8.252;2022-08-19T01:37:52;99862.28;;;21.56;71.35
46598;BME280;32318;48.858;8.252;2022-08-19T01:45:52;99855.78;;;21.57;70.64
46598;BME280;32318;48.858;8.252;2022-08-19T01:53:53;99850.84;;;21.54;71.11
46598;BME280;32318;48.858;8.252;2022-08-19T02:01:54;99856.19;;;21.49;71.28
46598;BME280;32318;48.858;8.252;2022-08-19T02:09:54;99848.78;;;21.44;71.60
46598;BME280;32318;48.858;8.252;2022-08-19T02:17:55;99860.13;;;21.41;71.32
46598;BME280;32318;48.858;8.252;2022-08-19T02:25:55;99855.75;;;21.40;71.52
46598;BME280;32318;48.858;8.252;2022-08-19T02:33:56;99844.56;;;21.36;71.70
46598;BME280;32318;48.858;8.252;2022-08-19T02:41:57;99847.53;;;21.35;71.79
46598;BME280;32318;48.858;8.252;2022-08-19T02:50:01;99845.31;;;21.31;72.34
46598;BME280;32318;48.858;8.252;2022-08-19T02:58:02;99850.41;;;21.28;72.61
46598;BME280;32318;48.858;8.252;2022-08-19T03:06:13;99855.84;;;21.28;73.67
46598;BME280;32318;48.858;8.252;2022-08-19T03:14:13;99876.75;;;21.27;72.84
46598;BME280;32318;48.858;8.252;2022-08-19T03:22:14;99870.47;;;21.27;73.00
46598;BME280;32318;48.858;8.252;2022-08-19T03:30:14;99865.03;;;21.27;73.06
46598;BME280;32318;48.858;8.252;2022-08-19T03:38:14;99883.47;;;21.25;73.13
46598;BME280;32318;48.858;8.252;2022-08-19T03:46:17;99879.69;;;21.26;73.32
46598;BME280;32318;48.858;8.252;2022-08-19T03:54:22;99881.25;;;21.22;73.69
46598;BME280;32318;48.858;8.252;2022-08-19T04:02:23;99865.69;;;21.17;73.88
46598;BME280;32318;48.858;8.252;2022-08-19T04:10:23;99884.03;;;21.10;74.24
46598;BME280;32318;48.858;8.252;2022-08-19T04:18:24;99884.25;;;21.08;73.82
46598;BME280;32318;48.858;8.252;2022-08-19T04:26:28;99881.44;;;21.03;73.85
46598;BME280;32318;48.858;8.252;2022-08-19T04:34:31;99884.41;;;21.02;73.98
46598;BME280;32318;48.858;8.252;2022-08-19T04:42:32;99892.56;;;21.02;74.63
46598;BME280;32318;48.858;8.252;2022-08-19T04:50:42;99884.41;;;21.02;74.29
46598;BME280;32318;48.858;8.252;2022-08-19T04:58:44;99911.78;;;21.00;74.64
46598;BME280;32318;48.858;8.252;2022-08-19T05:06:45;99922.16;;;21.03;74.90
46598;BME280;32318;48.858;8.252;2022-08-19T05:14:47;99920.47;;;21.14;74.27
46598;BME280;32318;48.858;8.252;2022-08-19T05:22:49;99921.97;;;21.22;74.19
46598;BME280;32318;48.858;8.252;2022-08-19T05:30:49;99951.13;;;21.26;73.72
46598;BME280;32318;48.858;8.252;2022-08-19T05:38:51;99958.41;;;21.26;73.77
46598;BME280;32318;48.858;8.252;2022-08-19T05:46:53;99969.41;;;21.31;73.48
46598;BME280;32318;48.858;8.252;2022-08-19T05:54:53;99974.31;;;21.34;73.71
46598;BME280;32318;48.858;8.252;2022-08-19T06:02:55;99962.53;;;21.40;73.15
46598;BME280;32318;48.858;8.252;2022-08-19T06:10:56;99977.00;;;21.46;73.21
46598;BME280;32318;48.858;8.252;2022-08-19T06:18:59;99969.44;;;21.48;73.03
46598;BME280;32318;48.858;8.252;2022-08-19T06:27:00;99978.97;;;21.51;73.04
46598;BME280;32318;48.858;8.252;2022-08-19T06:35:01;99998.59;;;21.53;72.89
46598;BME280;32318;48.858;8.252;2022-08-19T06:43:01;100001.88;;;21.55;73.10
46598;BME280;32318;48.858;8.252;2022-08-19T06:51:02;100004.72;;;21.60;72.88
46598;BME280;32318;48.858;8.252;2022-08-19T06:59:12;99999.97;;;21.67;72.50
46598;BME280;32318;48.858;8.252;2022-08-19T07:07:14;100017.44;;;21.71;72.24
46598;BME280;32318;48.858;8.252;2022-08-19T07:15:14;100007.16;;;21.90;71.66
46598;BME280;32318;48.858;8.252;2022-08-19T07:23:15;100007.09;;;22.02;70.56
46598;BME280;32318;48.858;8.252;2022-08-19T07:31:21;100000.94;;;22.24;69.74
46598;BME280;32318;48.858;8.252;2022-08-19T07:39:26;100013.38;;;22.37;68.64
46598;BME280;32318;48.858;8.252;2022-08-19T07:47:27;100010.75;;;22.42;68.40
46598;BME280;32318;48.858;8.252;2022-08-19T07:55:28;100005.28;;;22.59;67.63
46598;BME280;32318;48.858;8.252;2022-08-19T08:03:28;100007.41;;;22.74;67.25
46598;BME280;32318;48.858;8.252;2022-08-19T08:11:54;100010.53;;;22.83;65.95
46598;BME280;32318;48.858;8.252;2022-08-19T08:19:55;100013.06;;;22.90;66.69
46598;BME280;32318;48.858;8.252;2022-08-19T08:27:55;100007.31;;;23.08;65.10
46598;BME280;32318;48.858;8.252;2022-08-19T08:35:56;100015.41;;;23.47;64.48
46598;BME280;32318;48.858;8.252;2022-08-19T08:43:57;100019.19;;;23.69;62.72
46598;BME280;32318;48.858;8.252;2022-08-19T08:52:03;100012.44;;;24.04;59.21
46598;BME280;32318;48.858;8.252;2022-08-19T09:00:08;100004.56;;;24.40;60.08
46598;BME280;32318;48.858;8.252;2022-08-19T09:08:38;100024.34;;;24.63;57.36
46598;BME280;32318;48.858;8.252;2022-08-19T09:16:35;100014.56;;;24.29;57.17
46598;BME280;32318;48.858;8.252;2022-08-19T09:24:35;100028.91;;;24.52;57.21
46598;BME280;32318;48.858;8.252;2022-08-19T09:32:36;100019.63;;;24.90;56.18
46598;BME280;32318;48.858;8.252;2022-08-19T09:40:37;100007.97;;;25.11;53.11
46598;BME280;32318;48.858;8.252;2022-08-19T09:48:41;100012.09;;;25.24;52.66
46598;BME280;32318;48.858;8.252;2022-08-19T09:56:42;100020.31;;;25.24;52.52
46598;BME280;32318;48.858;8.252;2022-08-19T10:04:43;100016.53;;;25.35;53.43
46598;BME280;32318;48.858;8.252;2022-08-19T10:13:01;100016.66;;;25.66;52.92
46598;BME280;32318;48.858;8.252;2022-08-19T10:21:08;100028.13;;;25.63;51.62
46598;BME280;32318;48.858;8.252;2022-08-19T10:29:08;100019.38;;;25.66;50.90
46598;BME280;32318;48.858;8.252;2022-08-19T10:37:09;99998.66;;;26.17;49.93
46598;BME280;32318;48.858;8.252;2022-08-19T10:45:10;100003.22;;;26.68;47.87
46598;BME280;32318;48.858;8.252;2022-08-19T10:53:11;99986.50;;;26.74;45.86
46598;BME280;32318;48.858;8.252;2022-08-19T11:01:11;99984.88;;;26.68;46.96
46598;BME280;32318;48.858;8.252;2022-08-19T11:09:11;99971.16;;;26.84;46.58
46598;BME280;32318;48.858;8.252;2022-08-19T11:17:12;99973.34;;;26.82;46.23
46598;BME280;32318;48.858;8.252;2022-08-19T11:25:13;99968.47;;;26.68;47.00
46598;BME280;32318;48.858;8.252;2022-08-19T11:33:14;99957.81;;;26.56;47.49
46598;BME280;32318;48.858;8.252;2022-08-19T11:41:16;99956.88;;;26.92;47.21
46598;BME280;32318;48.858;8.252;2022-08-19T11:49:18;99959.28;;;27.04;46.75
46598;BME280;32318;48.858;8.252;2022-08-19T11:57:19;99964.31;;;26.86;47.88
46598;BME280;32318;48.858;8.252;2022-08-19T12:05:19;99959.91;;;26.90;47.83
46598;BME280;32318;48.858;8.252;2022-08-19T12:13:20;99958.38;;;27.24;47.30
46598;BME280;32318;48.858;8.252;2022-08-19T12:21:23;99966.72;;;27.03;46.77
46598;BME280;32318;48.858;8.252;2022-08-19T12:29:25;99964.03;;;26.83;47.43
46598;BME280;32318;48.858;8.252;2022-08-19T12:37:28;99959.44;;;26.62;47.89
46598;BME280;32318;48.858;8.252;2022-08-19T12:45:29;99953.09;;;26.83;47.62
46598;BME280;32318;48.858;8.252;2022-08-19T12:53:30;99950.31;;;26.93;46.88
46598;BME280;32318;48.858;8.252;2022-08-19T13:01:30;99947.63;;;26.83;46.71
46598;BME280;32318;48.858;8.252;2022-08-19T13:09:33;99945.38;;;26.90;46.15
46598;BME280;32318;48.858;8.252;2022-08-19T13:17:33;99939.28;;;27.08;45.54
46598;BME280;32318;48.858;8.252;2022-08-19T13:25:35;99924.63;;;27.29;41.61
46598;BME280;32318;48.858;8.252;2022-08-19T13:33:36;99924.56;;;27.39;43.01
46598;BME280;32318;48.858;8.252;2022-08-19T13:41:37;99926.28;;;27.30;42.62
46598;BME280;32318;48.858;8.252;2022-08-19T13:49:37;99921.38;;;27.27;43.53
46598;BME280;32318;48.858;8.252;2022-08-19T13:57:38;99907.03;;;27.40;42.82
46598;BME280;32318;48.858;8.252;2022-08-19T14:05:42;99917.59;;;27.92;41.97
46598;BME280;32318;48.858;8.252;2022-08-19T14:13:42;99910.69;;;27.99;42.24
46598;BME280;32318;48.858;8.252;2022-08-19T14:21:42;99912.34;;;27.95;42.33
46598;BME280;32318;48.858;8.252;2022-08-19T14:29:43;99913.44;;;27.99;41.75
46598;BME280;32318;48.858;8.252;2022-08-19T14:37:45;99920.03;;;27.93;40.32
46598;BME280;32318;48.858;8.252;2022-08-19T14:45:46;99901.94;;;27.92;40.91
46598;BME280;32318;48.858;8.252;2022-08-19T14:53:46;99889.25;;;28.01;39.63
46598;BME280;32318;48.858;8.252;2022-08-19T15:01:48;99888.28;;;28.16;40.39
46598;BME280;32318;48.858;8.252;2022-08-19T15:09:49;99892.09;;;28.21;40.03
46598;BME280;32318;48.858;8.252;2022-08-19T15:17:50;99901.38;;;27.95;39.95
46598;BME280;32318;48.858;8.252;2022-08-19T15:25:50;99890.59;;;27.75;39.94
46598;BME280;32318;48.858;8.252;2022-08-19T15:33:56;99901.38;;;27.66;40.03
46598;BME280;32318;48.858;8.252;2022-08-19T15:41:57;99909.34;;;27.62;39.97
46598;BME280;32318;48.858;8.252;2022-08-19T15:49:59;99904.34;;;27.69;39.57
46598;BME280;32318;48.858;8.252;2022-08-19T15:58:05;99894.16;;;28.05;37.97
46598;BME280;32318;48.858;8.252;2022-08-19T16:06:24;99890.00;;;28.37;38.32
46598;BME280;32318;48.858;8.252;2022-08-19T16:14:24;99893.97;;;28.49;38.19
46598;BME280;32318;48.858;8.252;2022-08-19T16:22:30;99895.47;;;28.37;38.68
46598;BME280;32318;48.858;8.252;2022-08-19T16:30:31;99900.16;;;28.36;38.84
46598;BME280;32318;48.858;8.252;2022-08-19T16:38:32;99897.13;;;28.38;38.85
46598;BME280;32318;48.858;8.252;2022-08-19T16:46:32;99912.25;;;28.35;38.94
46598;BME280;32318;48.858;8.252;2022-08-19T16:54:32;99908.50;;;28.26;38.82
46598;BME280;32318;48.858;8.252;2022-08-19T17:02:35;99919.88;;;28.14;39.21
46598;BME280;32318;48.858;8.252;2022-08-19T17:10:37;99918.91;;;27.99;39.21
46598;BME280;32318;48.858;8.252;2022-08-19T17:18:37;99930.63;;;27.76;39.54
46598;BME280;32318;48.858;8.252;2022-08-19T17:26:38;99939.84;;;27.55;39.46
46598;BME280;32318;48.858;8.252;2022-08-19T17:34:38;99941.88;;;27.34;39.61
46598;BME280;32318;48.858;8.252;2022-08-19T17:42:39;99950.44;;;27.22;39.60
46598;BME280;32318;48.858;8.252;2022-08-19T17:50:40;99946.94;;;27.06;40.00
46598;BME280;32318;48.858;8.252;2022-08-19T17:58:40;99951.44;;;26.87;40.12
46598;BME280;32318;48.858;8.252;2022-08-19T18:06:41;99964.03;;;26.72;40.05
46598;BME280;32318;48.858;8.252;2022-08-19T18:14:41;99969.56;;;26.62;40.11
46598;BME280;32318;48.858;8.252;2022-08-19T18:22:44;99986.28;;;26.50;40.49
46598;BME280;32318;48.858;8.252;2022-08-19T18:30:45;99983.28;;;26.36;40.46
46598;BME280;32318;48.858;8.252;2022-08-19T18:38:46;99991.00;;;26.13;40.74
46598;BME280;32318;48.858;8.252;2022-08-19T18:47:05;99999.72;;;25.95;41.37
46598;BME280;32318;48.858;8.252;2022-08-19T18:55:24;100012.00;;;25.77;41.63
46598;BME280;32318;48.858;8.252;2022-08-19T19:03:27;100030.00;;;25.62;41.84
46598;BME280;32318;48.858;8.252;2022-08-19T19:11:36;100044.22;;;25.54;41.84
46598;BME280;32318;48.858;8.252;2022-08-19T19:19:38;100057.03;;;25.43;42.45
46598;BME280;32318;48.858;8.252;2022-08-19T19:27:41;100059.97;;;25.31;42.29
46598;BME280;32318;48.858;8.252;2022-08-19T19:35:41;100066.47;;;25.20;42.75
46598;BME280;32318;48.858;8.252;2022-08-19T19:43:43;100078.19;;;25.10;43.12
46598;BME280;32318;48.858;8.252;2022-08-19T19:51:43;100098.31;;;24.99;44.07
46598;BME280;32318;48.858;8.252;2022-08-19T19:59:43;100109.72;;;24.90;44.25
46598;BME280;32318;48.858;8.252;2022-08-19T20:07:44;100116.75;;;24.76;45.31
46598;BME280;32318;48.858;8.252;2022-08-19T20:16:03;100123.50;;;24.68;45.51
46598;BME280;32318;48.858;8.252;2022-08-19T20:24:03;100139.53;;;24.59;46.05
46598;BME280;32318;48.858;8.252;2022-08-19T20:32:03;100150.66;;;24.53;46.56
46598;BME280;32318;48.858;8.252;2022-08-19T20:40:05;100164.25;;;24.48;48.26
46598;BME280;32318;48.858;8.252;2022-08-19T20:48:06;100165.50;;;24.35;47.53
46598;BME280;32318;48.858;8.252;2022-08-19T20:56:07;100172.50;;;24.25;48.09
46598;BME280;32318;48.858;8.252;2022-08-19T21:04:07;100188.25;;;24.18;48.42
46598;BME280;32318;48.858;8.252;2022-08-19T21:12:13;100184.34;;;24.09;50.72
46598;BME280;32318;48.858;8.252;2022-08-19T21:20:13;100191.31;;;24.00;49.45
46598;BME280;32318;48.858;8.252;2022-08-19T21:28:13;100191.47;;;23.93;50.05
46598;BME280;32318;48.858;8.252;2022-08-19T21:36:14;100194.66;;;23.85;50.11
46598;BME280;32318;48.858;8.252;2022-08-19T21:44:14;100191.72;;;23.69;50.11
46598;BME280;32318;48.858;8.252;2022-08-19T21:52:24;100211.25;;;23.61;52.12
46598;BME280;32318;48.858;8.252;2022-08-19T22:00:26;100206.41;;;23.46;51.64
46598;BME280;32318;48.858;8.252;2022-08-19T22:08:27;100212.97;;;23.28;52.20
46598;BME280;32318;48.858;8.252;2022-08-19T22:16:30;100212.56;;;23.19;52.42
46598;BME280;32318;48.858;8.252;2022-08-19T22:24:31;100204.34;;;23.02;53.38
46598;BME280;32318;48.858;8.252;2022-08-19T22:32:31;100211.47;;;22.86;53.71
46598;BME280;32318;48.858;8.252;2022-08-19T22:40:34;100209.63;;;22.75;55.08
46598;BME280;32318;48.858;8.252;2022-08-19T22:48:35;100208.16;;;22.67;54.87
46598;BME280;32318;48.858;8.252;2022-08-19T22:56:36;100205.06;;;22.63;55.32
46598;BME280;32318;48.858;8.252;2022-08-19T23:04:36;100203.44;;;22.62;55.41
46598;BME280;32318;48.858;8.252;2022-08-19T23:12:39;100212.41;;;22.63;55.84
46598;BME280;32318;48.858;8.252;2022-08-19T23:20:42;100207.78;;;22.63;55.58
46598;BME280;32318;48.858;8.252;2022-08-19T23:28:43;100209.69;;;22.63;55.75
46598;BME280;32318;48.858;8.252;2022-08-19T23:37:02;100200.13;;;22.60;56.44
46598;BME280;32318;48.858;8.252;2022-08-19T23:45:04;100198.41;;;22.54;56.39
46598;BME280;32318;48.858;8.252;2022-08-19T23:53:06;100194.44;;;22.45;56.79
